createdAt,value
2023-02-08T00:01:22.372Z,-1.19
2023-02-08T00:03:50.178Z,-1.28
2023-02-08T00:06:18.898Z,-1.48
2023-02-08T00:08:46.567Z,-1.64
2023-02-08T00:11:13.786Z,-1.67
2023-02-08T00:13:42.327Z,-1.67
2023-02-08T00:16:12.237Z,-1.74
2023-02-08T00:18:39.900Z,-1.78
2023-02-08T00:21:14.074Z,-1.84
2023-02-08T00:23:41.593Z,-1.84
2023-02-08T00:26:09.350Z,-1.89
2023-02-08T00:28:36.753Z,-1.94
2023-02-08T00:31:04.654Z,-1.97
2023-02-08T00:33:32.174Z,-2.01
2023-02-08T00:36:06.389Z,-2.03
2023-02-08T00:38:34.108Z,-1.99
2023-02-08T00:41:01.473Z,-1.97
2023-02-08T00:43:29.117Z,-2.10
2023-02-08T00:45:58.798Z,-2.20
2023-02-08T00:48:28.115Z,-2.18
2023-02-08T00:51:04.612Z,-2.23
2023-02-08T00:53:38.467Z,-2.22
2023-02-08T00:56:08.382Z,-2.26
2023-02-08T00:58:35.870Z,-2.48
2023-02-08T01:01:05.252Z,-2.64
2023-02-08T01:03:40.013Z,-2.58
2023-02-08T01:06:13.949Z,-2.58
2023-02-08T01:08:41.190Z,-2.64
2023-02-08T01:11:18.603Z,-2.65
2023-02-08T01:13:46.053Z,-2.57
2023-02-08T01:16:19.374Z,-2.56
2023-02-08T01:18:52.278Z,-2.73
2023-02-08T01:21:24.594Z,-2.79
2023-02-08T01:23:52.434Z,-2.65
2023-02-08T01:26:21.954Z,-2.64
2023-02-08T01:28:50.364Z,-2.62
2023-02-08T01:31:24.036Z,-2.63
2023-02-08T01:33:52.445Z,-2.60
2023-02-08T01:36:19.789Z,-2.56
2023-02-08T01:38:47.907Z,-2.54
2023-02-08T01:41:27.504Z,-2.59
2023-02-08T01:44:00.396Z,-2.63
2023-02-08T01:46:28.766Z,-2.66
2023-02-08T01:49:03.399Z,-2.71
2023-02-08T01:51:39.486Z,-2.78
2023-02-08T01:54:10.423Z,-2.89
2023-02-08T01:56:45.771Z,-2.78
2023-02-08T01:59:41.070Z,-2.91
2023-02-08T02:02:15.197Z,-2.99
2023-02-08T02:04:42.889Z,-3.10
2023-02-08T02:07:11.093Z,-3.07
2023-02-08T02:09:50.425Z,-3.00
2023-02-08T02:12:18.853Z,-3.08
2023-02-08T02:14:46.453Z,-3.06
2023-02-08T02:17:17.033Z,-3.04
2023-02-08T02:20:12.477Z,-3.11
2023-02-08T02:23:48.373Z,-3.10
2023-02-08T02:27:25.474Z,-3.15
2023-02-08T02:30:02.059Z,-3.28
2023-02-08T02:33:18.924Z,-3.22
2023-02-08T02:36:32.682Z,-3.23
2023-02-08T02:39:29.938Z,-3.29
2023-02-08T02:42:36.149Z,-3.31
2023-02-08T02:45:29.982Z,-3.32
2023-02-08T02:48:42.832Z,-3.29
2023-02-08T02:51:49.270Z,-3.28
2023-02-08T02:54:43.528Z,-3.26
2023-02-08T02:57:17.859Z,-3.20
2023-02-08T02:59:46.805Z,-3.29
2023-02-08T03:02:14.576Z,-3.29
2023-02-08T03:04:41.626Z,-3.38
2023-02-08T03:07:20.673Z,-3.32
2023-02-08T03:10:08.101Z,-3.15
2023-02-08T03:13:33.195Z,-3.28
2023-02-08T03:16:21.257Z,-3.33
2023-02-08T03:19:10.383Z,-3.32
2023-02-08T03:21:56.963Z,-3.49
2023-02-08T03:24:49.479Z,-3.46
2023-02-08T03:27:45.872Z,-3.42
2023-02-08T03:30:30.767Z,-3.41
2023-02-08T03:33:34.593Z,-3.59
2023-02-08T03:36:20.324Z,-3.53
2023-02-08T03:38:50.544Z,-3.49
2023-02-08T03:41:28.806Z,-3.52
2023-02-08T03:44:16.437Z,-3.59
2023-02-08T03:47:02.756Z,-3.47
2023-02-08T03:49:35.884Z,-3.47
2023-02-08T03:52:09.774Z,-3.59
2023-02-08T03:54:51.234Z,-3.47
2023-02-08T03:57:31.090Z,-3.35
2023-02-08T04:00:11.977Z,-3.31
2023-02-08T04:02:59.512Z,-3.37
2023-02-08T04:05:27.211Z,-3.24
2023-02-08T04:07:54.548Z,-3.28
2023-02-08T04:10:21.883Z,-3.45
2023-02-08T04:12:49.905Z,-3.55
2023-02-08T04:15:18.306Z,-3.65
2023-02-08T04:17:45.706Z,-3.65
2023-02-08T04:20:13.221Z,-3.43
2023-02-08T04:22:40.983Z,-3.47
2023-02-08T04:25:08.503Z,-3.54
2023-02-08T04:27:35.907Z,-3.64
2023-02-08T04:30:04.586Z,-3.78
2023-02-08T04:32:32.010Z,-3.55
2023-02-08T04:34:59.378Z,-3.43
2023-02-08T04:37:26.662Z,-3.56
2023-02-08T04:39:54.190Z,-3.54
2023-02-08T04:42:21.414Z,-3.66
2023-02-08T04:44:48.649Z,-3.66
2023-02-08T04:47:15.992Z,-3.68
2023-02-08T04:49:43.313Z,-3.67
2023-02-08T04:52:10.513Z,-3.64
2023-02-08T04:54:39.938Z,-3.72
2023-02-08T04:57:13.246Z,-3.77
2023-02-08T04:59:41.099Z,-3.98
2023-02-08T05:02:08.724Z,-3.90
2023-02-08T05:04:36.468Z,-3.93
2023-02-08T05:07:04.100Z,-3.93
2023-02-08T05:09:31.425Z,-3.79
2023-02-08T05:11:58.677Z,-3.59
2023-02-08T05:14:26.255Z,-3.70
2023-02-08T05:16:53.473Z,-3.70
2023-02-08T05:19:20.773Z,-3.63
2023-02-08T05:21:48.009Z,-3.69
2023-02-08T05:24:15.209Z,-3.71
2023-02-08T05:26:42.464Z,-3.75
2023-02-08T05:29:10.683Z,-3.84
2023-02-08T05:31:38.364Z,-3.94
2023-02-08T05:34:05.743Z,-3.79
2023-02-08T05:36:32.929Z,-3.68
2023-02-08T05:39:00.114Z,-3.85
2023-02-08T05:41:27.341Z,-3.97
2023-02-08T05:43:54.572Z,-3.97
2023-02-08T05:46:22.117Z,-3.84
2023-02-08T05:48:49.608Z,-3.86
2023-02-08T05:51:16.945Z,-4.01
2023-02-08T05:53:45.391Z,-4.08
2023-02-08T05:56:12.653Z,-4.11
2023-02-08T05:58:39.896Z,-4.13
2023-02-08T06:01:13.294Z,-3.96
2023-02-08T06:03:41.703Z,-4.02
2023-02-08T06:06:11.152Z,-4.01
2023-02-08T06:08:39.878Z,-3.98
2023-02-08T06:11:07.674Z,-4.15
2023-02-08T06:13:35.052Z,-4.09
2023-02-08T06:16:02.399Z,-4.18
2023-02-08T06:18:29.699Z,-4.24
2023-02-08T06:20:58.120Z,-4.10
2023-02-08T06:23:25.582Z,-4.20
2023-02-08T06:25:52.820Z,-4.27
2023-02-08T06:28:20.108Z,-4.31
2023-02-08T06:30:52.505Z,-4.49
2023-02-08T06:33:20.130Z,-4.67
2023-02-08T06:35:56.328Z,-4.57
2023-02-08T06:38:23.670Z,-4.47
2023-02-08T06:40:51.205Z,-4.42
2023-02-08T06:43:18.945Z,-4.46
2023-02-08T06:45:47.428Z,-4.47
2023-02-08T06:48:15.213Z,-4.48
2023-02-08T06:50:43.031Z,-4.41
2023-02-08T06:53:10.721Z,-4.43
2023-02-08T06:55:39.038Z,-4.39
2023-02-08T06:58:06.293Z,-4.35
2023-02-08T07:00:34.452Z,-4.46
2023-02-08T07:03:01.652Z,-4.45
2023-02-08T07:05:28.969Z,-4.36
2023-02-08T07:07:56.183Z,-4.29
2023-02-08T07:10:23.412Z,-4.30
2023-02-08T07:12:50.630Z,-4.26
2023-02-08T07:15:18.089Z,-4.09
2023-02-08T07:17:45.373Z,-3.99
2023-02-08T07:20:13.513Z,-3.98
2023-02-08T07:22:41.888Z,-3.97
2023-02-08T07:25:10.053Z,-3.85
2023-02-08T07:27:37.450Z,-3.73
2023-02-08T07:30:08.126Z,-3.63
2023-02-08T07:32:36.016Z,-3.59
2023-02-08T07:35:03.587Z,-3.46
2023-02-08T07:37:32.902Z,-3.36
2023-02-08T07:40:00.217Z,-3.33
2023-02-08T07:42:27.580Z,-3.22
2023-02-08T07:45:08.873Z,-3.09
2023-02-08T07:47:36.146Z,-3.02
2023-02-08T07:50:03.404Z,-2.98
2023-02-08T07:52:30.728Z,-2.91
2023-02-08T07:54:57.988Z,-2.82
2023-02-08T07:57:25.464Z,-2.74
2023-02-08T07:59:54.214Z,-2.66
2023-02-08T08:02:21.644Z,-2.54
2023-02-08T08:04:48.857Z,-2.44
2023-02-08T08:07:16.090Z,-2.32
2023-02-08T08:09:43.505Z,-2.19
2023-02-08T08:12:10.773Z,-2.11
2023-02-08T08:14:38.073Z,-1.98
2023-02-08T08:17:05.337Z,-1.88
2023-02-08T08:19:32.682Z,-1.72
2023-02-08T08:22:00.967Z,-1.66
2023-02-08T08:24:28.348Z,-1.58
2023-02-08T08:26:55.781Z,-1.47
2023-02-08T08:29:23.094Z,-1.33
2023-02-08T08:31:51.924Z,-1.17
2023-02-08T08:34:19.213Z,-1.06
2023-02-08T08:36:46.500Z,-1.00
2023-02-08T08:39:13.798Z,-0.88
2023-02-08T08:41:40.985Z,-0.80
2023-02-08T08:44:08.202Z,-0.69
2023-02-08T08:46:35.463Z,-0.62
2023-02-08T08:49:03.128Z,-0.55
2023-02-08T08:51:35.113Z,-0.43
2023-02-08T08:54:06.948Z,-0.23
2023-02-08T08:56:34.587Z,-0.16
2023-02-08T08:59:01.811Z,-0.02
2023-02-08T09:01:29.576Z,0.15
2023-02-08T09:03:56.796Z,0.38
2023-02-08T09:06:24.014Z,0.44
2023-02-08T09:08:51.855Z,0.56
2023-02-08T09:11:19.586Z,0.62
2023-02-08T09:13:46.980Z,0.68
2023-02-08T09:16:17.860Z,0.82
2023-02-08T09:18:45.693Z,0.93
2023-02-08T09:21:21.064Z,1.00
2023-02-08T09:23:48.667Z,1.06
2023-02-08T09:26:19.181Z,1.07
2023-02-08T09:28:47.190Z,1.17
2023-02-08T09:31:32.693Z,1.40
2023-02-08T09:34:01.464Z,1.66
2023-02-08T09:36:35.481Z,1.80
2023-02-08T09:39:18.775Z,1.97
2023-02-08T09:42:39.347Z,2.20
2023-02-08T09:45:58.980Z,2.30
2023-02-08T09:48:35.329Z,2.10
2023-02-08T09:51:40.430Z,2.31
2023-02-08T09:54:29.642Z,2.51
2023-02-08T09:57:01.446Z,2.71
2023-02-08T09:59:32.800Z,2.77
2023-02-08T10:02:18.261Z,2.75
2023-02-08T10:05:04.756Z,2.71
2023-02-08T10:07:35.010Z,2.64
2023-02-08T10:10:12.318Z,2.61
2023-02-08T10:13:21.460Z,2.55
2023-02-08T10:16:28.857Z,3.02
2023-02-08T10:19:26.123Z,2.27
2023-02-08T10:22:33.164Z,2.68
2023-02-08T10:25:59.528Z,2.74
2023-02-08T10:28:35.327Z,3.34
2023-02-08T10:31:32.168Z,3.01
2023-02-08T10:34:46.828Z,3.23
2023-02-08T10:37:30.247Z,3.45
2023-02-08T10:40:18.401Z,3.93
2023-02-08T10:43:25.138Z,6.78
2023-02-08T10:46:03.834Z,7.95
2023-02-08T10:49:00.008Z,7.76
2023-02-08T10:51:29.801Z,7.30
2023-02-08T10:53:57.819Z,7.92
2023-02-08T10:56:36.764Z,8.88
2023-02-08T10:59:32.739Z,4.40
2023-02-08T11:02:00.306Z,8.68
2023-02-08T11:04:28.327Z,8.36
2023-02-08T11:06:55.722Z,10.81
2023-02-08T11:09:30.911Z,9.19
2023-02-08T11:12:02.943Z,8.21
2023-02-08T11:14:47.268Z,6.59
2023-02-08T11:17:30.923Z,7.07
2023-02-08T11:20:00.406Z,9.09
2023-02-08T11:22:34.466Z,8.24
2023-02-08T11:25:08.134Z,11.55
2023-02-08T11:27:45.193Z,12.68
2023-02-08T11:30:15.843Z,13.45
2023-02-08T11:32:47.461Z,9.80
2023-02-08T11:35:26.884Z,7.26
2023-02-08T11:37:58.927Z,10.43
2023-02-08T11:40:43.108Z,13.18
2023-02-08T11:43:31.014Z,6.57
2023-02-08T11:46:01.349Z,9.76
2023-02-08T11:48:55.883Z,10.97
2023-02-08T11:51:34.662Z,9.67
2023-02-08T11:54:03.545Z,6.98
2023-02-08T11:56:34.950Z,7.64
2023-02-08T11:59:12.821Z,6.61
2023-02-08T12:01:43.548Z,4.76
2023-02-08T12:04:15.811Z,5.53
2023-02-08T12:07:20.956Z,5.52
2023-02-08T12:10:22.229Z,6.44
2023-02-08T12:13:27.048Z,5.58
2023-02-08T12:16:34.212Z,5.36
2023-02-08T12:19:40.867Z,4.61
2023-02-08T12:22:24.130Z,4.08
2023-02-08T12:25:40.412Z,4.80
2023-02-08T12:28:17.141Z,4.55
2023-02-08T12:31:00.165Z,4.18
2023-02-08T12:33:39.239Z,4.71
2023-02-08T12:36:42.528Z,4.94
2023-02-08T12:40:00.702Z,5.26
2023-02-08T12:43:21.859Z,3.93
2023-02-08T12:46:04.097Z,4.23
2023-02-08T12:48:52.873Z,4.58
2023-02-08T12:52:30.236Z,4.83
2023-02-08T12:55:15.905Z,5.26
2023-02-08T12:57:51.269Z,5.34
2023-02-08T13:00:28.666Z,5.31
2023-02-08T13:03:20.489Z,4.56
2023-02-08T13:06:01.537Z,4.97
2023-02-08T13:09:02.872Z,4.78
2023-02-08T13:11:57.573Z,5.23
2023-02-08T13:14:52.771Z,4.07
2023-02-08T13:17:27.406Z,3.88
2023-02-08T13:20:43.543Z,4.51
2023-02-08T13:23:50.665Z,4.81
2023-02-08T13:26:33.595Z,5.10
2023-02-08T13:29:03.360Z,5.28
2023-02-08T13:31:57.482Z,5.36
2023-02-08T13:34:53.896Z,5.41
2023-02-08T13:37:31.446Z,5.56
2023-02-08T13:40:19.776Z,5.45
2023-02-08T13:43:12.147Z,5.28
2023-02-08T13:45:44.493Z,4.70
2023-02-08T13:48:16.850Z,5.11
2023-02-08T13:50:57.073Z,4.64
2023-02-08T13:53:39.637Z,5.11
2023-02-08T13:56:12.626Z,5.50
2023-02-08T13:58:49.004Z,5.77
2023-02-08T14:01:30.398Z,5.52
2023-02-08T14:04:12.311Z,5.94
2023-02-08T14:06:56.652Z,5.72
2023-02-08T14:09:44.805Z,5.75
2023-02-08T14:12:26.616Z,5.92
2023-02-08T14:15:15.644Z,5.78
2023-02-08T14:17:57.262Z,5.10
2023-02-08T14:20:40.416Z,5.45
2023-02-08T14:23:30.616Z,4.45
2023-02-08T14:26:20.709Z,4.47
2023-02-08T14:28:57.083Z,4.89
2023-02-08T14:31:45.652Z,5.44
2023-02-08T14:34:34.929Z,5.89
2023-02-08T14:37:10.675Z,5.19
2023-02-08T14:39:38.104Z,5.37
2023-02-08T14:42:13.989Z,5.84
2023-02-08T14:44:42.115Z,5.83
2023-02-08T14:47:24.360Z,5.15
2023-02-08T14:50:17.736Z,5.32
2023-02-08T14:53:13.247Z,5.44
2023-02-08T14:56:14.880Z,5.17
2023-02-08T14:58:48.899Z,5.35
2023-02-08T15:01:28.326Z,5.55
2023-02-08T15:04:01.870Z,5.41
2023-02-08T15:06:38.330Z,4.79
2023-02-08T15:09:23.168Z,4.43
2023-02-08T15:12:00.776Z,4.43
2023-02-08T15:14:30.867Z,5.99
2023-02-08T15:16:58.712Z,7.84
2023-02-08T15:19:37.754Z,6.88
2023-02-08T15:22:31.543Z,6.49
2023-02-08T15:25:24.967Z,5.66
2023-02-08T15:28:03.112Z,5.53
2023-02-08T15:30:38.748Z,5.20
2023-02-08T15:33:24.399Z,5.44
2023-02-08T15:36:09.050Z,5.01
2023-02-08T15:38:38.769Z,5.68
2023-02-08T15:41:27.991Z,7.27
2023-02-08T15:44:21.749Z,7.26
2023-02-08T15:49:39.648Z,6.47
2023-02-08T15:52:08.326Z,5.66
2023-02-08T15:54:35.819Z,5.05
2023-02-08T15:57:35.593Z,5.03
2023-02-08T16:00:20.696Z,4.67
2023-02-08T16:03:00.355Z,4.31
2023-02-08T16:05:32.317Z,4.47
2023-02-08T16:08:02.537Z,4.32
2023-02-08T16:10:46.878Z,4.12
2023-02-08T16:13:24.696Z,4.12
2023-02-08T16:16:37.665Z,4.10
2023-02-08T16:19:30.602Z,4.02
2023-02-08T16:22:26.082Z,3.97
2023-02-08T16:24:55.809Z,3.76
2023-02-08T16:27:28.591Z,3.43
2023-02-08T16:29:56.253Z,3.20
2023-02-08T16:32:34.021Z,3.13
2023-02-08T16:35:29.910Z,2.94
2023-02-08T16:38:02.797Z,2.87
2023-02-08T16:40:54.089Z,2.77
2023-02-08T16:43:33.027Z,2.68
2023-02-08T16:46:15.216Z,2.68
2023-02-08T16:48:56.810Z,2.74
2023-02-08T16:51:31.969Z,2.72
2023-02-08T16:54:09.633Z,2.71
2023-02-08T16:56:38.651Z,2.78
2023-02-08T16:59:07.113Z,2.74
2023-02-08T17:01:35.783Z,2.74
2023-02-08T17:04:02.933Z,2.72
2023-02-08T17:06:35.587Z,2.71
2023-02-08T17:09:06.737Z,2.68
2023-02-08T17:11:34.342Z,2.66
2023-02-08T17:14:02.114Z,2.71
2023-02-08T17:16:31.865Z,2.70
2023-02-08T17:19:00.983Z,2.74
2023-02-08T17:21:31.786Z,2.77
2023-02-08T17:23:59.097Z,2.80
2023-02-08T17:26:38.713Z,2.76
2023-02-08T17:29:06.461Z,2.74
2023-02-08T17:31:33.804Z,2.67
2023-02-08T17:34:04.562Z,2.52
2023-02-08T17:36:36.409Z,2.55
2023-02-08T17:39:06.081Z,2.43
2023-02-08T17:41:33.539Z,2.36
2023-02-08T17:44:00.957Z,2.31
2023-02-08T17:46:30.685Z,2.27
2023-02-08T17:49:03.564Z,2.22
2023-02-08T17:51:31.513Z,2.21
2023-02-08T17:53:59.180Z,2.20
2023-02-08T17:56:28.606Z,2.21
2023-02-08T17:58:56.228Z,2.18
2023-02-08T18:01:27.169Z,2.14
2023-02-08T18:03:54.905Z,2.01
2023-02-08T18:06:27.296Z,1.96
2023-02-08T18:08:55.689Z,1.90
2023-02-08T18:11:24.309Z,1.87
2023-02-08T18:13:54.343Z,1.84
2023-02-08T18:16:26.634Z,1.70
2023-02-08T18:18:59.483Z,1.70
2023-02-08T18:21:27.509Z,1.71
2023-02-08T18:23:55.494Z,1.64
2023-02-08T18:26:25.246Z,1.56
2023-02-08T18:28:53.177Z,1.52
2023-02-08T18:31:21.562Z,1.51
2023-02-08T18:33:51.170Z,1.53
2023-02-08T18:36:21.364Z,1.56
2023-02-08T18:38:53.178Z,1.51
2023-02-08T18:41:27.017Z,1.52
2023-02-08T18:43:57.559Z,1.51
2023-02-08T18:46:30.982Z,1.53
2023-02-08T18:48:58.449Z,1.42
2023-02-08T18:51:33.161Z,1.44
2023-02-08T18:54:03.569Z,1.43
2023-02-08T18:56:35.296Z,1.43
2023-02-08T18:59:02.956Z,1.39
2023-02-08T19:01:33.406Z,1.43
2023-02-08T19:04:01.915Z,1.52
2023-02-08T19:06:39.522Z,1.46
2023-02-08T19:09:14.505Z,1.42
2023-02-08T19:11:44.632Z,1.49
2023-02-08T19:14:15.702Z,1.54
2023-02-08T19:16:43.639Z,1.49
2023-02-08T19:19:13.833Z,1.53
2023-02-08T19:21:41.377Z,1.56
2023-02-08T19:24:15.464Z,1.59
2023-02-08T19:26:42.907Z,1.46
2023-02-08T19:29:17.524Z,1.60
2023-02-08T19:31:45.471Z,1.45
2023-02-08T19:34:13.243Z,1.43
2023-02-08T19:36:51.969Z,1.34
2023-02-08T19:39:26.527Z,1.41
2023-02-08T19:41:54.924Z,1.42
2023-02-08T19:44:22.774Z,1.44
2023-02-08T19:46:55.252Z,1.41
2023-02-08T19:49:25.802Z,1.43
2023-02-08T19:51:53.455Z,1.52
2023-02-08T19:54:21.240Z,1.45
2023-02-08T19:56:50.358Z,1.37
2023-02-08T19:59:33.134Z,1.30
2023-02-08T20:02:02.564Z,1.35
2023-02-08T20:04:29.832Z,1.22
2023-02-08T20:06:57.093Z,1.41
2023-02-08T20:09:24.403Z,1.42
2023-02-08T20:11:59.759Z,1.30
2023-02-08T20:14:32.686Z,1.16
2023-02-08T20:17:04.363Z,1.17
2023-02-08T20:19:31.694Z,1.26
2023-02-08T20:21:59.036Z,1.33
2023-02-08T20:24:26.330Z,1.36
2023-02-08T20:26:53.687Z,1.32
2023-02-08T20:29:20.975Z,1.25
2023-02-08T20:31:51.905Z,1.28
2023-02-08T20:34:19.408Z,1.32
2023-02-08T20:37:04.530Z,1.55
2023-02-08T20:39:33.707Z,1.44
2023-02-08T20:42:01.033Z,1.53
2023-02-08T20:44:28.674Z,1.78
2023-02-08T20:46:56.071Z,2.04
2023-02-08T20:49:25.641Z,1.81
2023-02-08T20:51:54.466Z,1.94
2023-02-08T20:54:24.357Z,1.93
2023-02-08T20:56:53.878Z,1.73
2023-02-08T20:59:22.132Z,2.07
2023-02-08T21:01:50.083Z,1.84
2023-02-08T21:04:20.315Z,1.58
2023-02-08T21:06:47.741Z,1.44
2023-02-08T21:09:19.625Z,1.73
2023-02-08T21:11:47.430Z,1.76
2023-02-08T21:14:19.076Z,1.51
2023-02-08T21:16:56.612Z,1.49
2023-02-08T21:19:29.031Z,1.26
2023-02-08T21:22:01.225Z,1.26
2023-02-08T21:24:29.457Z,1.21
2023-02-08T21:26:57.766Z,1.38
2023-02-08T21:29:29.285Z,1.11
2023-02-08T21:31:57.827Z,1.30
2023-02-08T21:34:25.352Z,1.29
2023-02-08T21:36:52.959Z,1.31
2023-02-08T21:39:20.413Z,1.00
2023-02-08T21:41:52.086Z,1.01
2023-02-08T21:44:19.665Z,1.05
2023-02-08T21:46:47.107Z,1.15
2023-02-08T21:49:32.975Z,0.89
2023-02-08T21:52:19.228Z,0.78
2023-02-08T21:54:53.075Z,0.89
2023-02-08T21:57:32.813Z,0.89
2023-02-08T22:00:01.452Z,0.95
2023-02-08T22:02:30.882Z,0.67
2023-02-08T22:05:01.354Z,0.72
2023-02-08T22:07:29.859Z,0.80
2023-02-08T22:09:57.330Z,0.86
2023-02-08T22:12:24.684Z,0.83
2023-02-08T22:14:51.997Z,0.59
2023-02-08T22:17:19.374Z,0.66
2023-02-08T22:19:46.695Z,0.72
2023-02-08T22:22:13.952Z,0.69
2023-02-08T22:24:41.368Z,0.44
2023-02-08T22:27:09.001Z,0.42
2023-02-08T22:29:36.570Z,0.29
2023-02-08T22:32:05.471Z,0.28
2023-02-08T22:34:32.912Z,0.28
2023-02-08T22:37:03.695Z,0.12
2023-02-08T22:39:32.968Z,0.11
2023-02-08T22:42:00.386Z,0.14
2023-02-08T22:44:27.635Z,0.39
2023-02-08T22:46:57.910Z,0.17
2023-02-08T22:49:25.268Z,0.21
2023-02-08T22:51:52.538Z,0.08
2023-02-08T22:54:20.139Z,0.09
2023-02-08T22:56:47.319Z,-0.07
2023-02-08T22:59:14.520Z,-0.30
2023-02-08T23:01:41.940Z,-0.13
2023-02-08T23:04:09.480Z,-0.15
2023-02-08T23:06:36.921Z,-0.42
2023-02-08T23:09:07.872Z,-0.10
2023-02-08T23:11:35.102Z,-0.26
2023-02-08T23:15:36.619Z,-0.34
2023-02-08T23:18:23.563Z,-0.32
2023-02-08T23:20:51.532Z,-0.32
2023-02-08T23:23:18.855Z,-0.34
2023-02-08T23:27:20.458Z,-0.43
2023-02-08T23:30:09.494Z,-0.53
2023-02-08T23:32:37.266Z,-0.64
2023-02-08T23:35:05.021Z,-0.69
2023-02-08T23:37:32.114Z,-0.67
2023-02-08T23:40:00.077Z,-0.63
2023-02-08T23:42:27.383Z,-0.52
2023-02-08T23:44:59.588Z,-0.40
2023-02-08T23:47:30.626Z,-0.40
2023-02-08T23:49:57.930Z,-0.41
2023-02-08T23:52:25.184Z,-0.45
2023-02-08T23:54:52.470Z,-0.55
2023-02-08T23:57:19.739Z,-0.55
2023-02-08T23:59:47.106Z,-0.57
